sensor_id;sensor_type;location;lat;lon;timestamp;temperature;humidity
37972;DHT22;23794;48.234;8.344;2022-10-31T00:01:36;11.30;99.90
37972;DHT22;23794;48.234;8.344;2022-10-31T00:04:05;11.40;99.90
37972;DHT22;23794;48.234;8.344;2022-10-31T00:06:32;11.40;99.90
37972;DHT22;23794;48.234;8.344;2022-10-31T00:09:02;11.30;99.90
37972;DHT22;23794;48.234;8.344;2022-10-31T00:11:29;11.40;99.90
37972;DHT22;23794;48.234;8.344;2022-10-31T00:13:59;11.30;99.90
37972;DHT22;23794;48.234;8.344;2022-10-31T00:16:27;11.30;99.90
37972;DHT22;23794;48.234;8.344;2022-10-31T00:18:58;11.30;99.90
37972;DHT22;23794;48.234;8.344;2022-10-31T00:21:26;11.30;99.90
37972;DHT22;23794;48.234;8.344;2022-10-31T00:23:53;11.30;99.90
37972;DHT22;23794;48.234;8.344;2022-10-31T00:26:20;11.30;99.90
37972;DHT22;23794;48.234;8.344;2022-10-31T00:28:48;11.30;99.90
37972;DHT22;23794;48.234;8.344;2022-10-31T00:31:15;11.30;99.90
37972;DHT22;23794;48.234;8.344;2022-10-31T00:33:43;11.30;99.90
37972;DHT22;23794;48.234;8.344;2022-10-31T00:36:16;11.20;99.90
37972;DHT22;23794;48.234;8.344;2022-10-31T00:38:44;11.20;99.90
37972;DHT22;23794;48.234;8.344;2022-10-31T00:41:12;11.20;99.90
37972;DHT22;23794;48.234;8.344;2022-10-31T00:43:41;11.20;99.90
37972;DHT22;23794;48.234;8.344;2022-10-31T00:46:08;11.20;99.90
37972;DHT22;23794;48.234;8.344;2022-10-31T00:48:35;11.20;99.90
37972;DHT22;23794;48.234;8.344;2022-10-31T00:51:01;11.10;99.90
37972;DHT22;23794;48.234;8.344;2022-10-31T00:53:28;11.10;99.90
37972;DHT22;23794;48.234;8.344;2022-10-31T00:55:55;11.10;99.90
37972;DHT22;23794;48.234;8.344;2022-10-31T00:58:22;11.10;99.90
37972;DHT22;23794;48.234;8.344;2022-10-31T01:00:49;11.10;99.90
37972;DHT22;23794;48.234;8.344;2022-10-31T01:03:25;11.00;99.90
37972;DHT22;23794;48.234;8.344;2022-10-31T01:06:05;11.10;99.90
37972;DHT22;23794;48.234;8.344;2022-10-31T01:08:34;11.10;99.90
37972;DHT22;23794;48.234;8.344;2022-10-31T01:11:14;11.00;99.90
37972;DHT22;23794;48.234;8.344;2022-10-31T01:13:41;11.00;99.90
37972;DHT22;23794;48.234;8.344;2022-10-31T01:16:11;11.00;99.90
37972;DHT22;23794;48.234;8.344;2022-10-31T01:18:39;11.00;99.90
37972;DHT22;23794;48.234;8.344;2022-10-31T01:21:13;10.90;99.90
37972;DHT22;23794;48.234;8.344;2022-10-31T01:23:40;10.90;99.90
37972;DHT22;23794;48.234;8.344;2022-10-31T01:26:19;10.90;99.90
37972;DHT22;23794;48.234;8.344;2022-10-31T01:28:52;10.90;99.90
37972;DHT22;23794;48.234;8.344;2022-10-31T01:31:22;10.90;99.90
37972;DHT22;23794;48.234;8.344;2022-10-31T01:33:49;10.90;99.90
37972;DHT22;23794;48.234;8.344;2022-10-31T01:36:20;10.80;99.90
37972;DHT22;23794;48.234;8.344;2022-10-31T01:38:51;10.80;99.90
37972;DHT22;23794;48.234;8.344;2022-10-31T01:41:25;10.80;99.90
37972;DHT22;23794;48.234;8.344;2022-10-31T01:44:00;10.80;99.90
37972;DHT22;23794;48.234;8.344;2022-10-31T01:46:37;10.70;99.90
37972;DHT22;23794;48.234;8.344;2022-10-31T01:49:13;10.70;99.90
37972;DHT22;23794;48.234;8.344;2022-10-31T01:51:47;10.70;99.90
37972;DHT22;23794;48.234;8.344;2022-10-31T01:54:18;10.80;99.90
37972;DHT22;23794;48.234;8.344;2022-10-31T01:56:50;10.80;99.90
37972;DHT22;23794;48.234;8.344;2022-10-31T01:59:20;10.70;99.90
37972;DHT22;23794;48.234;8.344;2022-10-31T02:01:49;10.70;99.90
37972;DHT22;23794;48.234;8.344;2022-10-31T02:04:18;10.70;99.90
37972;DHT22;23794;48.234;8.344;2022-10-31T02:06:51;10.60;99.90
37972;DHT22;23794;48.234;8.344;2022-10-31T02:09:20;10.60;99.90
37972;DHT22;23794;48.234;8.344;2022-10-31T02:11:55;10.70;99.90
37972;DHT22;23794;48.234;8.344;2022-10-31T02:14:26;10.60;99.90
37972;DHT22;23794;48.234;8.344;2022-10-31T02:16:53;10.60;99.90
37972;DHT22;23794;48.234;8.344;2022-10-31T02:19:29;10.50;99.90
37972;DHT22;23794;48.234;8.344;2022-10-31T02:22:27;10.50;99.90
37972;DHT22;23794;48.234;8.344;2022-10-31T02:25:08;10.50;99.90
37972;DHT22;23794;48.234;8.344;2022-10-31T02:30:27;10.50;99.90
37972;DHT22;23794;48.234;8.344;2022-10-31T02:33:14;10.50;99.90
37972;DHT22;23794;48.234;8.344;2022-10-31T02:35:48;10.50;99.90
37972;DHT22;23794;48.234;8.344;2022-10-31T02:44:21;10.40;99.90
37972;DHT22;23794;48.234;8.344;2022-10-31T02:47:08;10.40;99.90
37972;DHT22;23794;48.234;8.344;2022-10-31T02:49:45;10.30;99.90
37972;DHT22;23794;48.234;8.344;2022-10-31T02:52:24;10.40;99.90
37972;DHT22;23794;48.234;8.344;2022-10-31T02:54:51;10.40;99.90
37972;DHT22;23794;48.234;8.344;2022-10-31T02:57:26;10.40;99.90
37972;DHT22;23794;48.234;8.344;2022-10-31T03:00:04;10.30;99.90
37972;DHT22;23794;48.234;8.344;2022-10-31T03:08:02;10.40;99.90
37972;DHT22;23794;48.234;8.344;2022-10-31T03:10:57;10.30;99.90
37972;DHT22;23794;48.234;8.344;2022-10-31T03:15:55;10.30;99.90
37972;DHT22;23794;48.234;8.344;2022-10-31T03:18:33;10.30;99.90
37972;DHT22;23794;48.234;8.344;2022-10-31T03:21:09;10.30;99.90
37972;DHT22;23794;48.234;8.344;2022-10-31T03:23:39;10.20;99.90
37972;DHT22;23794;48.234;8.344;2022-10-31T03:26:08;10.30;99.90
37972;DHT22;23794;48.234;8.344;2022-10-31T03:28:58;10.30;99.90
37972;DHT22;23794;48.234;8.344;2022-10-31T03:31:31;10.30;99.90
37972;DHT22;23794;48.234;8.344;2022-10-31T03:34:01;10.20;99.90
37972;DHT22;23794;48.234;8.344;2022-10-31T03:36:32;10.20;99.90
37972;DHT22;23794;48.234;8.344;2022-10-31T03:39:01;10.20;99.90
37972;DHT22;23794;48.234;8.344;2022-10-31T03:41:34;10.20;99.90
37972;DHT22;23794;48.234;8.344;2022-10-31T03:44:03;10.20;99.90
37972;DHT22;23794;48.234;8.344;2022-10-31T03:46:32;10.20;99.90
37972;DHT22;23794;48.234;8.344;2022-10-31T03:49:00;10.30;99.90
37972;DHT22;23794;48.234;8.344;2022-10-31T03:54:10;10.20;99.90
37972;DHT22;23794;48.234;8.344;2022-10-31T03:56:44;10.20;99.90
37972;DHT22;23794;48.234;8.344;2022-10-31T03:59:20;10.20;99.90
37972;DHT22;23794;48.234;8.344;2022-10-31T04:01:52;10.20;99.90
37972;DHT22;23794;48.234;8.344;2022-10-31T04:04:22;10.10;99.90
37972;DHT22;23794;48.234;8.344;2022-10-31T04:06:49;10.10;99.90
37972;DHT22;23794;48.234;8.344;2022-10-31T04:09:17;10.10;99.90
37972;DHT22;23794;48.234;8.344;2022-10-31T04:11:50;10.10;99.90
37972;DHT22;23794;48.234;8.344;2022-10-31T04:14:37;10.10;99.90
37972;DHT22;23794;48.234;8.344;2022-10-31T04:17:07;10.00;99.90
37972;DHT22;23794;48.234;8.344;2022-10-31T04:19:38;10.00;99.90
37972;DHT22;23794;48.234;8.344;2022-10-31T04:22:06;10.00;99.90
37972;DHT22;23794;48.234;8.344;2022-10-31T04:24:33;10.00;99.90
37972;DHT22;23794;48.234;8.344;2022-10-31T04:27:00;9.90;99.90
37972;DHT22;23794;48.234;8.344;2022-10-31T04:29:28;9.90;99.90
37972;DHT22;23794;48.234;8.344;2022-10-31T04:31:55;10.00;99.90
37972;DHT22;23794;48.234;8.344;2022-10-31T04:34:24;10.00;99.90
37972;DHT22;23794;48.234;8.344;2022-10-31T04:36:51;10.10;99.90
37972;DHT22;23794;48.234;8.344;2022-10-31T04:39:18;10.10;99.90
37972;DHT22;23794;48.234;8.344;2022-10-31T04:42:10;10.00;99.90
37972;DHT22;23794;48.234;8.344;2022-10-31T04:44:38;10.00;99.90
37972;DHT22;23794;48.234;8.344;2022-10-31T04:47:05;10.00;99.90
37972;DHT22;23794;48.234;8.344;2022-10-31T04:49:31;10.00;99.90
37972;DHT22;23794;48.234;8.344;2022-10-31T04:51:58;10.00;99.90
37972;DHT22;23794;48.234;8.344;2022-10-31T04:54:26;9.90;99.90
37972;DHT22;23794;48.234;8.344;2022-10-31T04:57:12;9.90;99.90
37972;DHT22;23794;48.234;8.344;2022-10-31T04:59:42;9.90;99.90
37972;DHT22;23794;48.234;8.344;2022-10-31T05:02:09;9.90;99.90
37972;DHT22;23794;48.234;8.344;2022-10-31T05:04:49;9.90;99.90
37972;DHT22;23794;48.234;8.344;2022-10-31T05:07:18;9.90;99.90
37972;DHT22;23794;48.234;8.344;2022-10-31T05:09:45;9.90;99.90
37972;DHT22;23794;48.234;8.344;2022-10-31T05:12:13;9.90;99.90
37972;DHT22;23794;48.234;8.344;2022-10-31T05:14:58;9.90;99.90
37972;DHT22;23794;48.234;8.344;2022-10-31T05:17:44;10.00;99.90
37972;DHT22;23794;48.234;8.344;2022-10-31T05:20:48;9.90;99.90
37972;DHT22;23794;48.234;8.344;2022-10-31T05:23:23;9.90;99.90
37972;DHT22;23794;48.234;8.344;2022-10-31T05:25:50;9.90;99.90
37972;DHT22;23794;48.234;8.344;2022-10-31T05:28:16;9.90;99.90
37972;DHT22;23794;48.234;8.344;2022-10-31T05:30:43;9.90;99.90
37972;DHT22;23794;48.234;8.344;2022-10-31T05:33:13;9.90;99.90
37972;DHT22;23794;48.234;8.344;2022-10-31T05:35:59;9.90;99.90
37972;DHT22;23794;48.234;8.344;2022-10-31T05:38:31;9.90;99.90
37972;DHT22;23794;48.234;8.344;2022-10-31T05:41:07;9.80;99.90
37972;DHT22;23794;48.234;8.344;2022-10-31T05:43:33;9.80;99.90
37972;DHT22;23794;48.234;8.344;2022-10-31T05:46:04;9.80;99.90
37972;DHT22;23794;48.234;8.344;2022-10-31T05:49:00;9.80;99.90
37972;DHT22;23794;48.234;8.344;2022-10-31T05:51:47;9.70;99.90
37972;DHT22;23794;48.234;8.344;2022-10-31T05:54:14;9.70;99.90
37972;DHT22;23794;48.234;8.344;2022-10-31T05:56:44;9.60;99.90
37972;DHT22;23794;48.234;8.344;2022-10-31T05:59:11;9.70;99.90
37972;DHT22;23794;48.234;8.344;2022-10-31T06:01:39;9.60;99.90
37972;DHT22;23794;48.234;8.344;2022-10-31T06:04:14;9.60;99.90
37972;DHT22;23794;48.234;8.344;2022-10-31T06:06:41;9.60;99.90
37972;DHT22;23794;48.234;8.344;2022-10-31T06:09:09;9.60;99.90
37972;DHT22;23794;48.234;8.344;2022-10-31T06:11:37;9.60;99.90
37972;DHT22;23794;48.234;8.344;2022-10-31T06:14:04;9.60;99.90
37972;DHT22;23794;48.234;8.344;2022-10-31T06:16:43;9.60;99.90
37972;DHT22;23794;48.234;8.344;2022-10-31T06:19:36;9.60;99.90
37972;DHT22;23794;48.234;8.344;2022-10-31T06:22:03;9.60;99.90
37972;DHT22;23794;48.234;8.344;2022-10-31T06:24:32;9.60;99.90
37972;DHT22;23794;48.234;8.344;2022-10-31T06:27:20;9.60;99.90
37972;DHT22;23794;48.234;8.344;2022-10-31T06:29:48;9.70;99.90
37972;DHT22;23794;48.234;8.344;2022-10-31T06:32:22;9.70;99.90
37972;DHT22;23794;48.234;8.344;2022-10-31T06:34:50;9.70;99.90
37972;DHT22;23794;48.234;8.344;2022-10-31T06:37:17;9.70;99.90
37972;DHT22;23794;48.234;8.344;2022-10-31T06:39:46;9.80;99.90
37972;DHT22;23794;48.234;8.344;2022-10-31T06:42:16;9.80;99.90
37972;DHT22;23794;48.234;8.344;2022-10-31T06:44:43;9.90;99.90
37972;DHT22;23794;48.234;8.344;2022-10-31T06:47:28;9.90;99.90
37972;DHT22;23794;48.234;8.344;2022-10-31T06:50:00;10.00;99.90
37972;DHT22;23794;48.234;8.344;2022-10-31T06:52:27;10.00;99.90
37972;DHT22;23794;48.234;8.344;2022-10-31T06:54:55;10.10;99.90
37972;DHT22;23794;48.234;8.344;2022-10-31T06:57:22;10.10;99.90
37972;DHT22;23794;48.234;8.344;2022-10-31T06:59:49;10.20;99.90
37972;DHT22;23794;48.234;8.344;2022-10-31T07:02:27;10.30;99.90
37972;DHT22;23794;48.234;8.344;2022-10-31T07:04:55;10.40;99.90
37972;DHT22;23794;48.234;8.344;2022-10-31T07:07:22;10.40;99.90
37972;DHT22;23794;48.234;8.344;2022-10-31T07:09:50;10.50;99.90
37972;DHT22;23794;48.234;8.344;2022-10-31T07:12:21;10.60;99.90
37972;DHT22;23794;48.234;8.344;2022-10-31T07:14:55;10.70;99.90
37972;DHT22;23794;48.234;8.344;2022-10-31T07:17:23;10.80;99.90
37972;DHT22;23794;48.234;8.344;2022-10-31T07:19:57;10.80;99.90
37972;DHT22;23794;48.234;8.344;2022-10-31T07:22:32;10.90;99.90
37972;DHT22;23794;48.234;8.344;2022-10-31T07:24:59;10.90;99.90
37972;DHT22;23794;48.234;8.344;2022-10-31T07:27:56;11.00;99.90
37972;DHT22;23794;48.234;8.344;2022-10-31T07:30:23;11.20;99.90
37972;DHT22;23794;48.234;8.344;2022-10-31T07:32:54;11.10;99.90
37972;DHT22;23794;48.234;8.344;2022-10-31T07:35:28;11.30;99.90
37972;DHT22;23794;48.234;8.344;2022-10-31T07:37:57;11.40;99.90
37972;DHT22;23794;48.234;8.344;2022-10-31T07:40:25;11.50;99.90
37972;DHT22;23794;48.234;8.344;2022-10-31T07:42:53;11.40;99.90
37972;DHT22;23794;48.234;8.344;2022-10-31T07:45:51;11.50;99.90
37972;DHT22;23794;48.234;8.344;2022-10-31T07:48:36;11.60;99.90
37972;DHT22;23794;48.234;8.344;2022-10-31T07:51:32;11.70;99.90
37972;DHT22;23794;48.234;8.344;2022-10-31T07:54:17;11.90;99.90
37972;DHT22;23794;48.234;8.344;2022-10-31T07:56:44;12.10;99.90
37972;DHT22;23794;48.234;8.344;2022-10-31T07:59:13;12.20;99.90
37972;DHT22;23794;48.234;8.344;2022-10-31T08:01:40;12.40;99.90
37972;DHT22;23794;48.234;8.344;2022-10-31T08:04:25;12.40;99.90
37972;DHT22;23794;48.234;8.344;2022-10-31T08:07:11;12.50;99.90
37972;DHT22;23794;48.234;8.344;2022-10-31T08:09:42;12.60;99.90
37972;DHT22;23794;48.234;8.344;2022-10-31T08:12:18;12.70;99.90
37972;DHT22;23794;48.234;8.344;2022-10-31T08:14:45;12.80;99.90
37972;DHT22;23794;48.234;8.344;2022-10-31T08:17:14;13.00;99.90
37972;DHT22;23794;48.234;8.344;2022-10-31T08:19:48;13.20;99.90
37972;DHT22;23794;48.234;8.344;2022-10-31T08:22:15;13.40;99.90
37972;DHT22;23794;48.234;8.344;2022-10-31T08:24:43;13.60;99.90
37972;DHT22;23794;48.234;8.344;2022-10-31T08:27:10;13.80;99.90
37972;DHT22;23794;48.234;8.344;2022-10-31T08:29:38;13.80;99.90
37972;DHT22;23794;48.234;8.344;2022-10-31T08:32:06;13.90;99.90
37972;DHT22;23794;48.234;8.344;2022-10-31T08:35:01;14.00;99.90
37972;DHT22;23794;48.234;8.344;2022-10-31T08:37:52;14.00;99.90
37972;DHT22;23794;48.234;8.344;2022-10-31T08:40:19;14.10;99.90
37972;DHT22;23794;48.234;8.344;2022-10-31T08:42:46;14.20;99.90
37972;DHT22;23794;48.234;8.344;2022-10-31T08:45:13;14.30;99.90
37972;DHT22;23794;48.234;8.344;2022-10-31T08:47:40;14.40;99.90
37972;DHT22;23794;48.234;8.344;2022-10-31T08:50:07;14.50;99.90
37972;DHT22;23794;48.234;8.344;2022-10-31T08:52:34;14.60;99.90
37972;DHT22;23794;48.234;8.344;2022-10-31T08:55:21;14.70;99.90
37972;DHT22;23794;48.234;8.344;2022-10-31T08:58:17;14.80;99.90
37972;DHT22;23794;48.234;8.344;2022-10-31T09:00:52;14.90;99.90
37972;DHT22;23794;48.234;8.344;2022-10-31T09:03:22;15.00;99.90
37972;DHT22;23794;48.234;8.344;2022-10-31T09:05:50;15.10;99.90
37972;DHT22;23794;48.234;8.344;2022-10-31T09:08:17;15.20;99.90
37972;DHT22;23794;48.234;8.344;2022-10-31T09:10:46;15.30;99.90
37972;DHT22;23794;48.234;8.344;2022-10-31T09:13:20;15.50;99.90
37972;DHT22;23794;48.234;8.344;2022-10-31T09:16:24;15.60;99.90
37972;DHT22;23794;48.234;8.344;2022-10-31T09:18:53;15.70;99.90
37972;DHT22;23794;48.234;8.344;2022-10-31T09:21:19;15.90;99.90
37972;DHT22;23794;48.234;8.344;2022-10-31T09:23:46;16.00;99.90
37972;DHT22;23794;48.234;8.344;2022-10-31T09:26:14;16.10;99.90
37972;DHT22;23794;48.234;8.344;2022-10-31T09:29:01;16.10;99.90
37972;DHT22;23794;48.234;8.344;2022-10-31T09:31:29;16.20;99.90
37972;DHT22;23794;48.234;8.344;2022-10-31T09:33:56;16.30;99.90
37972;DHT22;23794;48.234;8.344;2022-10-31T09:36:42;16.30;99.90
37972;DHT22;23794;48.234;8.344;2022-10-31T09:39:13;16.50;99.90
37972;DHT22;23794;48.234;8.344;2022-10-31T09:44:33;16.60;99.90
37972;DHT22;23794;48.234;8.344;2022-10-31T09:50:21;16.70;99.90
37972;DHT22;23794;48.234;8.344;2022-10-31T09:52:58;16.80;99.90
37972;DHT22;23794;48.234;8.344;2022-10-31T09:55:44;16.80;99.90
37972;DHT22;23794;48.234;8.344;2022-10-31T09:58:25;16.90;99.90
37972;DHT22;23794;48.234;8.344;2022-10-31T10:01:00;17.00;99.90
37972;DHT22;23794;48.234;8.344;2022-10-31T10:03:46;17.10;99.90
37972;DHT22;23794;48.234;8.344;2022-10-31T10:06:44;17.20;99.90
37972;DHT22;23794;48.234;8.344;2022-10-31T10:09:51;17.20;99.90
37972;DHT22;23794;48.234;8.344;2022-10-31T10:13:39;17.30;99.90
37972;DHT22;23794;48.234;8.344;2022-10-31T10:25:23;17.40;99.90
37972;DHT22;23794;48.234;8.344;2022-10-31T10:30:46;17.50;99.90
37972;DHT22;23794;48.234;8.344;2022-10-31T10:33:14;17.60;99.90
37972;DHT22;23794;48.234;8.344;2022-10-31T10:35:47;17.70;99.90
37972;DHT22;23794;48.234;8.344;2022-10-31T10:38:27;17.70;99.90
37972;DHT22;23794;48.234;8.344;2022-10-31T10:40:58;17.80;99.90
37972;DHT22;23794;48.234;8.344;2022-10-31T10:43:48;17.90;99.90
37972;DHT22;23794;48.234;8.344;2022-10-31T10:49:35;18.10;99.90
37972;DHT22;23794;48.234;8.344;2022-10-31T11:00:20;18.40;99.90
37972;DHT22;23794;48.234;8.344;2022-10-31T11:02:48;18.40;99.90
37972;DHT22;23794;48.234;8.344;2022-10-31T11:05:23;18.30;99.90
37972;DHT22;23794;48.234;8.344;2022-10-31T11:07:50;18.40;99.90
37972;DHT22;23794;48.234;8.344;2022-10-31T11:10:17;18.40;99.90
37972;DHT22;23794;48.234;8.344;2022-10-31T11:16:09;18.40;99.90
37972;DHT22;23794;48.234;8.344;2022-10-31T11:18:42;18.40;99.90
37972;DHT22;23794;48.234;8.344;2022-10-31T11:21:27;18.50;99.90
37972;DHT22;23794;48.234;8.344;2022-10-31T11:26:38;18.60;99.90
37972;DHT22;23794;48.234;8.344;2022-10-31T11:29:21;18.60;99.90
37972;DHT22;23794;48.234;8.344;2022-10-31T11:31:52;18.60;99.90
37972;DHT22;23794;48.234;8.344;2022-10-31T11:34:37;18.60;99.90
37972;DHT22;23794;48.234;8.344;2022-10-31T11:37:13;18.50;99.90
37972;DHT22;23794;48.234;8.344;2022-10-31T11:39:42;18.50;99.90
37972;DHT22;23794;48.234;8.344;2022-10-31T11:42:10;18.50;99.90
37972;DHT22;23794;48.234;8.344;2022-10-31T11:44:42;18.50;99.90
37972;DHT22;23794;48.234;8.344;2022-10-31T11:47:15;18.40;99.90
37972;DHT22;23794;48.234;8.344;2022-10-31T11:49:44;18.30;99.90
37972;DHT22;23794;48.234;8.344;2022-10-31T11:52:39;18.30;99.90
37972;DHT22;23794;48.234;8.344;2022-10-31T11:57:50;18.20;99.90
37972;DHT22;23794;48.234;8.344;2022-10-31T12:08:19;18.70;99.90
37972;DHT22;23794;48.234;8.344;2022-10-31T12:11:08;18.90;99.90
37972;DHT22;23794;48.234;8.344;2022-10-31T12:14:16;19.10;99.90
37972;DHT22;23794;48.234;8.344;2022-10-31T12:19:52;19.40;99.90
37972;DHT22;23794;48.234;8.344;2022-10-31T12:25:24;19.60;99.90
37972;DHT22;23794;48.234;8.344;2022-10-31T12:28:21;19.60;99.90
37972;DHT22;23794;48.234;8.344;2022-10-31T12:44:49;20.20;99.90
37972;DHT22;23794;48.234;8.344;2022-10-31T12:58:32;20.70;99.90
37972;DHT22;23794;48.234;8.344;2022-10-31T13:04:05;21.10;99.90
37972;DHT22;23794;48.234;8.344;2022-10-31T13:06:50;21.30;99.90
37972;DHT22;23794;48.234;8.344;2022-10-31T13:09:21;21.20;99.90
37972;DHT22;23794;48.234;8.344;2022-10-31T13:11:58;21.30;99.60
37972;DHT22;23794;48.234;8.344;2022-10-31T13:17:00;21.30;99.90
37972;DHT22;23794;48.234;8.344;2022-10-31T13:19:36;21.40;99.90
37972;DHT22;23794;48.234;8.344;2022-10-31T13:22:23;21.30;99.90
37972;DHT22;23794;48.234;8.344;2022-10-31T13:25:09;21.30;99.90
37972;DHT22;23794;48.234;8.344;2022-10-31T13:30:38;21.60;99.90
37972;DHT22;23794;48.234;8.344;2022-10-31T13:33:17;21.70;99.90
37972;DHT22;23794;48.234;8.344;2022-10-31T13:41:21;21.80;99.90
37972;DHT22;23794;48.234;8.344;2022-10-31T13:46:36;21.70;99.90
37972;DHT22;23794;48.234;8.344;2022-10-31T13:49:19;21.60;99.90
37972;DHT22;23794;48.234;8.344;2022-10-31T13:51:47;21.60;99.90
37972;DHT22;23794;48.234;8.344;2022-10-31T13:54:33;21.30;99.90
37972;DHT22;23794;48.234;8.344;2022-10-31T13:57:00;20.90;99.90
37972;DHT22;23794;48.234;8.344;2022-10-31T13:59:29;20.40;99.90
37972;DHT22;23794;48.234;8.344;2022-10-31T14:01:59;20.10;99.90
37972;DHT22;23794;48.234;8.344;2022-10-31T14:04:38;19.80;99.90
37972;DHT22;23794;48.234;8.344;2022-10-31T14:07:15;19.60;99.90
37972;DHT22;23794;48.234;8.344;2022-10-31T14:10:20;19.60;99.90
37972;DHT22;23794;48.234;8.344;2022-10-31T14:12:48;19.60;99.90
37972;DHT22;23794;48.234;8.344;2022-10-31T14:15:26;19.70;99.90
37972;DHT22;23794;48.234;8.344;2022-10-31T14:18:02;19.80;99.90
37972;DHT22;23794;48.234;8.344;2022-10-31T14:20:43;19.80;99.90
37972;DHT22;23794;48.234;8.344;2022-10-31T14:25:38;19.60;99.90
37972;DHT22;23794;48.234;8.344;2022-10-31T14:28:30;19.40;99.90
37972;DHT22;23794;48.234;8.344;2022-10-31T14:30:59;19.30;99.90
37972;DHT22;23794;48.234;8.344;2022-10-31T14:33:28;19.20;99.90
37972;DHT22;23794;48.234;8.344;2022-10-31T14:36:04;19.00;99.90
37972;DHT22;23794;48.234;8.344;2022-10-31T14:41:48;18.60;99.90
37972;DHT22;23794;48.234;8.344;2022-10-31T14:44:38;18.50;99.90
37972;DHT22;23794;48.234;8.344;2022-10-31T14:52:49;18.50;99.90
37972;DHT22;23794;48.234;8.344;2022-10-31T14:55:17;18.40;99.90
37972;DHT22;23794;48.234;8.344;2022-10-31T14:57:52;18.30;99.90
37972;DHT22;23794;48.234;8.344;2022-10-31T15:00:22;18.20;99.90
37972;DHT22;23794;48.234;8.344;2022-10-31T15:03:03;18.20;99.90
37972;DHT22;23794;48.234;8.344;2022-10-31T15:05:32;18.10;99.90
37972;DHT22;23794;48.234;8.344;2022-10-31T15:08:00;18.00;99.90
37972;DHT22;23794;48.234;8.344;2022-10-31T15:10:30;17.80;99.90
37972;DHT22;23794;48.234;8.344;2022-10-31T15:13:09;17.60;99.90
37972;DHT22;23794;48.234;8.344;2022-10-31T15:15:37;17.40;99.90
37972;DHT22;23794;48.234;8.344;2022-10-31T15:18:04;17.30;99.90
37972;DHT22;23794;48.234;8.344;2022-10-31T15:20:38;17.20;99.90
37972;DHT22;23794;48.234;8.344;2022-10-31T15:23:21;17.30;99.90
37972;DHT22;23794;48.234;8.344;2022-10-31T15:25:49;17.20;99.90
37972;DHT22;23794;48.234;8.344;2022-10-31T15:28:22;17.10;99.90
37972;DHT22;23794;48.234;8.344;2022-10-31T15:30:58;17.00;99.90
37972;DHT22;23794;48.234;8.344;2022-10-31T15:33:27;16.90;99.90
37972;DHT22;23794;48.234;8.344;2022-10-31T15:36:03;16.80;99.90
37972;DHT22;23794;48.234;8.344;2022-10-31T15:38:30;16.60;99.90
37972;DHT22;23794;48.234;8.344;2022-10-31T15:41:05;16.60;99.90
37972;DHT22;23794;48.234;8.344;2022-10-31T15:43:45;16.50;99.90
37972;DHT22;23794;48.234;8.344;2022-10-31T15:46:13;16.30;99.90
37972;DHT22;23794;48.234;8.344;2022-10-31T15:48:45;16.30;99.90
37972;DHT22;23794;48.234;8.344;2022-10-31T15:51:12;16.30;99.90
37972;DHT22;23794;48.234;8.344;2022-10-31T15:53:50;16.10;99.90
37972;DHT22;23794;48.234;8.344;2022-10-31T15:56:23;15.90;99.90
37972;DHT22;23794;48.234;8.344;2022-10-31T15:58:52;15.80;99.90
37972;DHT22;23794;48.234;8.344;2022-10-31T16:01:23;15.70;99.90
37972;DHT22;23794;48.234;8.344;2022-10-31T16:04:20;15.60;99.90
37972;DHT22;23794;48.234;8.344;2022-10-31T16:07:03;15.60;99.90
37972;DHT22;23794;48.234;8.344;2022-10-31T16:09:58;15.50;99.90
37972;DHT22;23794;48.234;8.344;2022-10-31T16:12:35;15.40;99.90
37972;DHT22;23794;48.234;8.344;2022-10-31T16:15:04;15.20;99.90
37972;DHT22;23794;48.234;8.344;2022-10-31T16:17:31;15.20;99.90
37972;DHT22;23794;48.234;8.344;2022-10-31T16:20:04;15.30;99.90
37972;DHT22;23794;48.234;8.344;2022-10-31T16:22:36;15.30;99.90
37972;DHT22;23794;48.234;8.344;2022-10-31T16:25:12;15.20;99.90
37972;DHT22;23794;48.234;8.344;2022-10-31T16:27:46;15.10;99.90
37972;DHT22;23794;48.234;8.344;2022-10-31T16:33:02;15.20;99.90
37972;DHT22;23794;48.234;8.344;2022-10-31T16:35:37;15.10;99.90
37972;DHT22;23794;48.234;8.344;2022-10-31T16:38:05;15.10;99.90
37972;DHT22;23794;48.234;8.344;2022-10-31T16:40:32;15.00;99.90
37972;DHT22;23794;48.234;8.344;2022-10-31T16:43:00;15.00;99.90
37972;DHT22;23794;48.234;8.344;2022-10-31T16:45:31;14.80;99.90
37972;DHT22;23794;48.234;8.344;2022-10-31T16:48:08;14.70;99.90
37972;DHT22;23794;48.234;8.344;2022-10-31T16:50:37;14.70;99.90
37972;DHT22;23794;48.234;8.344;2022-10-31T16:53:04;14.60;99.90
37972;DHT22;23794;48.234;8.344;2022-10-31T16:56:01;14.50;99.90
37972;DHT22;23794;48.234;8.344;2022-10-31T16:58:30;14.40;99.90
37972;DHT22;23794;48.234;8.344;2022-10-31T17:01:03;14.20;99.90
37972;DHT22;23794;48.234;8.344;2022-10-31T17:03:31;14.10;99.90
37972;DHT22;23794;48.234;8.344;2022-10-31T17:05:58;14.10;99.90
37972;DHT22;23794;48.234;8.344;2022-10-31T17:08:24;14.00;99.90
37972;DHT22;23794;48.234;8.344;2022-10-31T17:10:54;14.00;99.90
37972;DHT22;23794;48.234;8.344;2022-10-31T17:13:29;14.10;99.90
37972;DHT22;23794;48.234;8.344;2022-10-31T17:15:59;14.10;99.90
37972;DHT22;23794;48.234;8.344;2022-10-31T17:18:26;14.10;99.90
37972;DHT22;23794;48.234;8.344;2022-10-31T17:20:58;14.10;99.90
37972;DHT22;23794;48.234;8.344;2022-10-31T17:23:26;13.90;99.90
37972;DHT22;23794;48.234;8.344;2022-10-31T17:25:55;13.80;99.90
37972;DHT22;23794;48.234;8.344;2022-10-31T17:28:22;13.90;99.90
37972;DHT22;23794;48.234;8.344;2022-10-31T17:30:48;13.80;99.90
37972;DHT22;23794;48.234;8.344;2022-10-31T17:33:16;13.70;99.90
37972;DHT22;23794;48.234;8.344;2022-10-31T17:35:43;13.70;99.90
37972;DHT22;23794;48.234;8.344;2022-10-31T17:38:13;13.90;99.90
37972;DHT22;23794;48.234;8.344;2022-10-31T17:40:40;13.80;99.90
37972;DHT22;23794;48.234;8.344;2022-10-31T17:43:09;13.60;99.90
37972;DHT22;23794;48.234;8.344;2022-10-31T17:45:38;13.70;99.90
37972;DHT22;23794;48.234;8.344;2022-10-31T17:48:06;13.70;99.90
37972;DHT22;23794;48.234;8.344;2022-10-31T17:50:35;13.70;99.90
37972;DHT22;23794;48.234;8.344;2022-10-31T17:53:02;13.80;99.90
37972;DHT22;23794;48.234;8.344;2022-10-31T17:55:30;13.90;99.90
37972;DHT22;23794;48.234;8.344;2022-10-31T17:58:03;14.00;99.90
37972;DHT22;23794;48.234;8.344;2022-10-31T18:00:30;13.80;99.90
37972;DHT22;23794;48.234;8.344;2022-10-31T18:02:58;13.90;99.90
37972;DHT22;23794;48.234;8.344;2022-10-31T18:05:25;13.90;99.90
37972;DHT22;23794;48.234;8.344;2022-10-31T18:07:52;13.70;99.90
37972;DHT22;23794;48.234;8.344;2022-10-31T18:10:19;13.70;99.90
37972;DHT22;23794;48.234;8.344;2022-10-31T18:12:46;13.50;99.90
37972;DHT22;23794;48.234;8.344;2022-10-31T18:15:15;13.50;99.90
37972;DHT22;23794;48.234;8.344;2022-10-31T18:17:43;13.50;99.90
37972;DHT22;23794;48.234;8.344;2022-10-31T18:20:10;13.30;99.90